• pl
  • eng

Awiacja
TAF FC 16:30 23.07.2019
  • WIND
  • SIGNIFICANT EURO
  • SIGNIFICANT
  • SIGMET
  • AIRMET
  • TAF FC
  • TAF FT
  • METAR GG30
  • METAR GG00


TAF EPLB 231430Z 2315/2324 30008KT 9999 SCT040=

TAF EPSY 231430Z 2315/2324 30006KT 9999 SCT035
BECMG 2320/2322 BKN012
PROB40 TEMPO 2321/2324 3000 -RA BR BKN006=

TAF EPZG 231430Z 2315/2324 36010KT CAVOK
BECMG 2317/2320 VRB02KT=
Awiacja.imgw.pl jest pogodowym serwisem informacyjnym
Instytutu Meteorologii i Gospodarki Wodnej Państwowego Instytutu Badawczego.
Copyright IMGW PIB 2009-2011© Wszelkie prawa zastrzeżone.